Time;durP1;ratioP1;P1;durP2;ratioP2;P2;SDS_P1;SDS_P2;PMS_P1;PMS_P2;Temp;Humidity;BMP_temperature;BMP_pressure;BME280_temperature;BME280_humidity;BME280_pressure;Samples;Min_cycle;Max_cycle;Signal;HPM_P1;HPM_P2
2022/03/04 00:02:05;;;;;;;6.73;1.00;;;6.70;99.90;;;;;;5040681;28;20173;-62
2022/03/04 00:04:34;;;;;;;1.43;0.80;;;6.40;99.90;;;;;;5036947;28;20767;-62
2022/03/04 00:06:59;;;;;;;3.63;1.03;;;6.50;99.90;;;;;;5039743;28;20231;-60
2022/03/04 00:09:25;;;;;;;1.80;1.10;;;6.50;99.90;;;;;;5047739;28;20177;-61
2022/03/04 00:11:51;;;;;;;1.63;0.83;;;6.50;99.90;;;;;;5035520;28;20174;-60
2022/03/04 00:14:18;;;;;;;1.80;0.83;;;6.40;99.90;;;;;;5048226;28;20291;-61
2022/03/04 00:16:44;;;;;;;1.07;0.73;;;;;;;;;;5049671;28;20181;-61
2022/03/04 00:19:12;;;;;;;1.20;0.90;;;6.40;99.90;;;;;;5048347;28;20203;-61
2022/03/04 00:21:46;;;;;;;3.30;0.93;;;6.50;99.90;;;;;;5047726;28;20200;-62
2022/03/04 00:24:12;;;;;;;0.90;0.77;;;6.50;99.90;;;;;;5050602;28;20212;-61
2022/03/04 00:26:39;;;;;;;1.77;0.93;;;6.50;99.90;;;;;;5049356;28;20197;-61
2022/03/04 00:29:05;;;;;;;2.43;1.07;;;6.40;99.90;;;;;;5047420;28;20196;-61
2022/03/04 00:31:32;;;;;;;1.77;1.03;;;6.40;99.90;;;;;;5031454;28;20166;-61
2022/03/04 00:33:58;;;;;;;1.33;0.83;;;6.40;99.90;;;;;;5032970;28;20544;-62
2022/03/04 00:36:24;;;;;;;2.80;0.87;;;6.50;99.90;;;;;;5050598;28;20295;-62
2022/03/04 00:38:59;;;;;;;6.33;1.20;;;6.40;99.90;;;;;;5040474;28;20189;-62
2022/03/04 00:41:25;;;;;;;3.40;0.90;;;6.40;99.90;;;;;;5039694;28;20183;-62
2022/03/04 00:43:51;;;;;;;2.33;0.93;;;6.40;99.90;;;;;;5036721;28;20217;-62
2022/03/04 00:46:19;;;;;;;1.50;1.10;;;6.40;99.90;;;;;;5040885;28;20247;-62
2022/03/04 00:48:45;;;;;;;2.40;1.70;;;6.20;99.90;;;;;;5048863;28;20184;-62
2022/03/04 00:51:12;;;;;;;2.80;2.00;;;6.40;99.90;;;;;;5050520;28;20192;-62
2022/03/04 00:53:38;;;;;;;5.20;1.83;;;6.50;99.90;;;;;;5040606;28;20165;-62
2022/03/04 00:56:06;;;;;;;2.40;2.00;;;6.50;99.90;;;;;;5050763;28;20173;-62
2022/03/04 00:58:33;;;;;;;2.67;1.67;;;6.60;99.90;;;;;;5041155;28;20676;-64
2022/03/04 01:00:58;;;;;;;2.57;2.00;;;6.50;99.90;;;;;;5036405;28;20165;-63
2022/03/04 01:03:24;;;;;;;7.73;2.10;;;6.50;99.90;;;;;;5035217;28;20699;-63
2022/03/04 01:05:49;;;;;;;6.23;1.70;;;6.60;99.90;;;;;;5044293;28;20185;-63
2022/03/04 01:08:15;;;;;;;5.80;1.57;;;6.40;99.90;;;;;;5048300;28;20173;-63
2022/03/04 01:10:41;;;;;;;3.10;1.50;;;6.50;99.90;;;;;;5042775;28;20719;-63
2022/03/04 01:13:07;;;;;;;5.23;1.40;;;6.60;99.90;;;;;;5037782;28;20528;-63
2022/03/04 01:15:33;;;;;;;2.43;1.17;;;6.50;99.90;;;;;;5050112;28;20219;-63
2022/03/04 01:17:58;;;;;;;2.30;1.40;;;6.50;99.90;;;;;;5046143;28;20254;-64
2022/03/04 01:20:24;;;;;;;3.30;1.00;;;;;;;;;;5030584;28;20174;-62
2022/03/04 01:22:50;;;;;;;1.10;0.77;;;6.50;99.90;;;;;;5031012;28;20627;-62
2022/03/04 01:25:16;;;;;;;2.03;1.27;;;6.50;99.90;;;;;;5044588;28;20270;-62
2022/03/04 01:27:41;;;;;;;3.30;1.33;;;6.40;99.90;;;;;;5048963;28;20169;-63
2022/03/04 01:30:09;;;;;;;1.77;1.10;;;6.50;99.90;;;;;;5050350;28;20184;-63
2022/03/04 01:32:36;;;;;;;2.33;1.10;;;6.50;99.90;;;;;;5046379;28;20702;-63
2022/03/04 01:35:03;;;;;;;2.80;1.07;;;6.50;99.90;;;;;;5036804;28;20180;-63
2022/03/04 01:37:29;;;;;;;2.10;1.30;;;6.50;99.90;;;;;;5047820;28;20192;-63
2022/03/04 01:39:55;;;;;;;2.73;1.20;;;6.50;99.90;;;;;;5047899;28;20256;-64
2022/03/04 01:42:22;;;;;;;2.37;1.40;;;6.50;99.90;;;;;;5053285;28;20288;-61
2022/03/04 01:44:48;;;;;;;2.07;1.20;;;6.50;99.90;;;;;;5052604;28;20231;-62
2022/03/04 01:47:13;;;;;;;2.43;1.10;;;6.60;99.90;;;;;;5049512;28;20265;-63
2022/03/04 01:49:40;;;;;;;1.63;1.10;;;6.40;99.90;;;;;;5040595;28;20652;-62
2022/03/04 01:52:07;;;;;;;3.13;0.93;;;6.60;99.90;;;;;;5051992;28;20166;-62
2022/03/04 01:54:33;;;;;;;1.97;0.80;;;6.50;99.90;;;;;;5053415;28;20177;-62
2022/03/04 01:56:58;;;;;;;2.77;1.20;;;6.50;99.90;;;;;;5053188;28;20710;-62
2022/03/04 01:59:24;;;;;;;1.20;0.77;;;;;;;;;;5054098;28;20184;-62
2022/03/04 02:01:52;;;;;;;2.47;0.97;;;6.40;99.90;;;;;;5044195;28;20235;-61
2022/03/04 02:04:25;;;;;;;4.10;0.73;;;6.60;99.90;;;;;;5034188;28;20293;-61
2022/03/04 02:06:51;;;;;;;1.90;1.10;;;6.50;99.90;;;;;;5033647;28;20569;-61
2022/03/04 02:09:17;;;;;;;5.23;0.80;;;6.40;99.90;;;;;;5048218;28;20181;-62
2022/03/04 02:11:44;;;;;;;3.13;0.90;;;6.40;99.90;;;;;;5051347;28;20177;-60
2022/03/04 02:14:13;;;;;;;1.20;0.70;;;6.50;99.90;;;;;;5051726;28;20256;-64
2022/03/04 02:16:53;;;;;;;0.90;0.70;;;6.40;99.90;;;;;;5049319;28;20180;-61
2022/03/04 02:19:20;;;;;;;1.27;0.90;;;6.60;99.90;;;;;;5045503;28;20180;-65
2022/03/04 02:21:55;;;;;;;1.20;0.90;;;6.50;99.90;;;;;;5042478;28;20189;-65
2022/03/04 02:24:23;;;;;;;3.30;1.00;;;6.40;99.90;;;;;;5037287;28;20265;-65
2022/03/04 02:26:50;;;;;;;2.40;0.90;;;6.50;99.90;;;;;;5046754;28;20173;-65
2022/03/04 02:29:16;;;;;;;2.13;0.90;;;6.40;99.90;;;;;;5037144;28;20169;-65
2022/03/04 02:31:42;;;;;;;2.20;1.10;;;6.40;99.90;;;;;;5053131;28;20173;-65
2022/03/04 02:34:08;;;;;;;1.70;1.00;;;6.40;99.90;;;;;;5051550;28;20227;-64
2022/03/04 02:36:34;;;;;;;4.50;0.93;;;6.40;99.90;;;;;;5044090;28;20181;-65
2022/03/04 02:39:00;;;;;;;3.00;0.87;;;6.30;99.90;;;;;;5036793;28;20260;-65
2022/03/04 02:41:26;;;;;;;2.87;0.83;;;6.40;99.90;;;;;;5038694;28;20542;-64
2022/03/04 02:43:52;;;;;;;2.70;0.90;;;6.40;99.90;;;;;;5044916;28;20221;-64
2022/03/04 02:46:18;;;;;;;3.70;1.10;;;6.40;99.90;;;;;;5051874;28;20216;-65
2022/03/04 02:48:44;;;;;;;2.10;1.07;;;6.30;99.90;;;;;;5047914;28;20220;-67
2022/03/04 02:51:10;;;;;;;2.83;0.93;;;6.40;99.90;;;;;;5052683;28;20185;-65
2022/03/04 02:53:36;;;;;;;1.60;1.10;;;;;;;;;;5052727;28;20162;-65
2022/03/04 02:56:01;;;;;;;1.80;0.87;;;6.40;99.90;;;;;;5051453;28;20185;-64
2022/03/04 02:58:27;;;;;;;2.73;0.93;;;6.40;99.90;;;;;;5040960;28;20260;-65
2022/03/04 03:00:53;;;;;;;2.00;0.90;;;;;;;;;;5048133;28;20188;-64
2022/03/04 03:03:19;;;;;;;3.43;1.10;;;6.50;99.90;;;;;;5052643;28;20196;-65
2022/03/04 03:05:45;;;;;;;1.83;1.10;;;6.40;99.90;;;;;;5051335;28;20192;-64
2022/03/04 03:08:11;;;;;;;2.03;1.00;;;6.40;99.90;;;;;;5042288;28;20260;-64
2022/03/04 03:10:36;;;;;;;2.93;0.90;;;6.40;99.90;;;;;;5045747;28;20184;-64
2022/03/04 03:13:03;;;;;;;2.03;0.93;;;6.40;99.90;;;;;;5051200;28;20173;-64
2022/03/04 03:15:28;;;;;;;1.27;0.90;;;6.50;99.90;;;;;;5048873;28;20703;-64
2022/03/04 03:17:54;;;;;;;1.93;0.83;;;6.50;99.90;;;;;;5036321;28;20182;-62
2022/03/04 03:20:20;;;;;;;1.23;0.90;;;6.50;99.90;;;;;;5033052;28;20177;-62
2022/03/04 03:22:46;;;;;;;1.77;0.77;;;6.50;99.90;;;;;;5043282;28;20170;-62
2022/03/04 03:25:12;;;;;;;1.87;0.90;;;6.50;99.90;;;;;;5035813;28;20251;-62
2022/03/04 03:27:38;;;;;;;2.63;0.87;;;;;;;;;;5046881;28;20178;-62
2022/03/04 03:30:05;;;;;;;2.40;0.93;;;6.50;99.90;;;;;;5042699;28;20254;-62
2022/03/04 03:32:31;;;;;;;2.60;0.77;;;6.50;99.90;;;;;;5044320;28;20683;-62
2022/03/04 03:34:56;;;;;;;1.53;0.83;;;6.50;99.90;;;;;;5050507;28;20181;-63
2022/03/04 03:37:22;;;;;;;2.27;0.80;;;6.50;99.90;;;;;;5048442;28;20177;-63
2022/03/04 03:39:48;;;;;;;4.77;1.10;;;6.50;99.90;;;;;;5040663;28;20734;-63
2022/03/04 03:42:14;;;;;;;4.00;0.93;;;6.60;99.90;;;;;;5050568;28;20549;-63
2022/03/04 03:44:39;;;;;;;3.23;0.80;;;6.70;99.90;;;;;;5033432;28;20579;-61
2022/03/04 03:47:06;;;;;;;1.63;0.70;;;;;;;;;;5033987;28;20636;-60
2022/03/04 03:49:31;;;;;;;1.73;0.80;;;6.50;99.90;;;;;;5043530;28;20188;-60
2022/03/04 03:51:57;;;;;;;3.27;0.90;;;6.60;99.90;;;;;;5039185;28;20173;-61
2022/03/04 03:54:23;;;;;;;3.77;1.00;;;6.50;99.90;;;;;;5051492;28;20177;-61
2022/03/04 03:56:49;;;;;;;0.67;0.53;;;6.50;99.90;;;;;;5051696;28;20173;-61
2022/03/04 03:59:14;;;;;;;2.90;0.80;;;6.50;99.90;;;;;;5034986;28;20186;-60
2022/03/04 04:01:40;;;;;;;1.00;0.53;;;6.50;99.90;;;;;;5031415;28;20166;-61
2022/03/04 04:04:12;;;;;;;3.17;0.87;;;6.50;99.90;;;;;;5031424;28;20304;-60
2022/03/04 04:06:39;;;;;;;2.37;0.90;;;6.50;99.90;;;;;;5050278;28;20662;-60
2022/03/04 04:09:05;;;;;;;3.57;1.00;;;6.50;99.90;;;;;;5036068;28;20174;-60
2022/03/04 04:11:34;;;;;;;1.30;0.90;;;;;;;;;;5031718;28;20186;-60
2022/03/04 04:14:00;;;;;;;0.93;0.70;;;6.40;99.90;;;;;;5050747;28;20201;-60
2022/03/04 04:16:25;;;;;;;3.10;1.03;;;6.50;99.90;;;;;;5048968;28;20212;-61
2022/03/04 04:18:51;;;;;;;1.10;1.00;;;6.50;99.90;;;;;;5032471;28;20672;-60
2022/03/04 04:21:17;;;;;;;1.50;1.00;;;6.50;99.90;;;;;;5035008;28;20169;-60
2022/03/04 04:23:43;;;;;;;4.23;1.00;;;;;;;;;;5042964;28;20209;-61
2022/03/04 04:26:08;;;;;;;5.67;1.10;;;6.60;99.90;;;;;;5035494;28;20651;-61
2022/03/04 04:28:34;;;;;;;2.50;1.10;;;6.40;99.90;;;;;;5050827;28;20197;-61
2022/03/04 04:31:00;;;;;;;1.90;1.13;;;6.50;99.90;;;;;;5051000;28;20173;-61
2022/03/04 04:33:25;;;;;;;3.17;1.20;;;6.50;99.90;;;;;;5051150;28;20226;-61
2022/03/04 04:35:51;;;;;;;2.90;1.10;;;6.50;99.90;;;;;;5035740;28;20656;-61
2022/03/04 04:38:17;;;;;;;3.53;1.30;;;6.50;99.90;;;;;;5031234;28;20234;-61
2022/03/04 04:40:43;;;;;;;2.07;1.10;;;6.40;99.90;;;;;;5041845;28;20180;-61
2022/03/04 04:43:08;;;;;;;2.57;1.00;;;6.40;99.90;;;;;;5049318;28;20248;-61
2022/03/04 04:45:34;;;;;;;3.93;1.00;;;6.50;99.90;;;;;;5047173;28;20355;-62
2022/03/04 04:48:00;;;;;;;2.13;1.10;;;6.50;99.90;;;;;;5034727;28;20636;-62
2022/03/04 04:50:25;;;;;;;4.90;1.50;;;4.90;99.90;;;;;;5050448;28;20663;-62
2022/03/04 04:52:51;;;;;;;1.37;1.00;;;6.50;99.90;;;;;;5034435;28;20173;-61
2022/03/04 04:55:17;;;;;;;2.90;1.00;;;6.50;99.90;;;;;;5041698;28;20607;-62
2022/03/04 04:57:42;;;;;;;3.30;1.10;;;6.40;99.90;;;;;;5047652;28;20252;-62
2022/03/04 05:00:08;;;;;;;2.53;0.87;;;6.40;99.90;;;;;;5033413;28;20182;-62
2022/03/04 05:02:34;;;;;;;4.70;1.10;;;6.40;99.90;;;;;;5046496;28;20177;-61
2022/03/04 05:04:59;;;;;;;4.00;1.20;;;6.30;99.90;;;;;;5030951;28;20249;-61
2022/03/04 05:07:25;;;;;;;1.77;1.10;;;6.50;99.90;;;;;;5030755;28;20659;-61
2022/03/04 05:09:51;;;;;;;1.80;0.80;;;6.30;99.90;;;;;;5030085;28;20228;-61
2022/03/04 05:12:17;;;;;;;3.27;1.23;;;6.40;99.90;;;;;;5038880;28;20663;-63
2022/03/04 05:14:42;;;;;;;3.47;0.97;;;6.30;99.90;;;;;;5038749;28;20582;-61
2022/03/04 05:17:08;;;;;;;2.27;1.00;;;;;;;;;;5038751;28;20675;-62
2022/03/04 05:19:34;;;;;;;4.53;1.03;;;6.30;99.90;;;;;;5038541;28;20177;-62
2022/03/04 05:21:59;;;;;;;2.50;1.00;;;6.30;99.90;;;;;;5054446;28;20216;-62
2022/03/04 05:24:25;;;;;;;3.23;0.93;;;6.30;99.90;;;;;;5052808;28;20262;-62
2022/03/04 05:26:51;;;;;;;4.67;0.90;;;6.30;99.90;;;;;;5041987;28;20177;-62
2022/03/04 05:29:16;;;;;;;4.33;0.97;;;6.20;99.90;;;;;;5043123;28;20223;-63
2022/03/04 05:31:42;;;;;;;3.90;1.00;;;5.90;99.90;;;;;;5052646;28;20174;-66
2022/03/04 05:34:09;;;;;;;1.83;0.97;;;6.10;99.90;;;;;;5052757;28;20188;-65
2022/03/04 05:36:37;;;;;;;2.97;1.03;;;6.10;99.90;;;;;;5053136;28;20261;-63
2022/03/04 05:39:03;;;;;;;4.93;1.07;;;6.10;99.90;;;;;;5041655;28;20178;-61
2022/03/04 05:41:30;;;;;;;2.53;1.10;;;5.80;99.90;;;;;;5034890;28;20205;-62
2022/03/04 05:43:56;;;;;;;2.30;1.00;;;6.00;99.90;;;;;;5053425;28;20253;-62
2022/03/04 05:46:22;;;;;;;4.67;1.20;;;6.60;99.90;;;;;;5054099;28;20628;-61
2022/03/04 05:48:48;;;;;;;3.93;0.93;;;6.00;99.90;;;;;;5042514;28;20224;-62
2022/03/04 05:51:13;;;;;;;2.13;0.90;;;6.00;99.90;;;;;;5060624;28;20267;-62
2022/03/04 05:53:39;;;;;;;5.47;1.00;;;;;;;;;;5051348;28;20183;-62
2022/03/04 05:56:07;;;;;;;2.87;1.00;;;6.00;99.90;;;;;;5053458;28;20201;-62
2022/03/04 05:58:35;;;;;;;7.90;1.13;;;6.00;99.90;;;;;;5053902;28;20201;-61
2022/03/04 06:01:02;;;;;;;3.90;0.93;;;6.00;99.90;;;;;;5054101;28;20239;-62
2022/03/04 06:03:28;;;;;;;2.23;0.80;;;6.00;99.90;;;;;;5053896;28;20251;-62
2022/03/04 06:05:54;;;;;;;3.00;0.93;;;5.90;99.90;;;;;;5053867;28;20253;-62
2022/03/04 06:08:20;;;;;;;4.47;0.90;;;6.00;99.90;;;;;;5034317;28;20334;-61
2022/03/04 06:10:46;;;;;;;6.43;1.13;;;6.00;99.90;;;;;;5042529;28;20185;-61
2022/03/04 06:13:12;;;;;;;2.80;0.90;;;5.90;99.90;;;;;;5040496;28;20189;-61
2022/03/04 06:15:37;;;;;;;3.33;0.90;;;5.90;99.90;;;;;;5045838;28;20178;-61
2022/03/04 06:18:03;;;;;;;3.07;1.10;;;5.90;99.90;;;;;;5037789;28;20652;-61
2022/03/04 06:20:29;;;;;;;4.70;1.00;;;;;;;;;;5034123;28;20182;-62
2022/03/04 06:22:55;;;;;;;5.10;1.23;;;5.90;99.90;;;;;;5034451;28;20178;-61
2022/03/04 06:25:21;;;;;;;6.87;1.30;;;5.80;99.90;;;;;;5053348;28;20174;-61
2022/03/04 06:27:53;;;;;;;6.10;1.30;;;5.80;99.90;;;;;;5050007;28;20235;-61
2022/03/04 06:30:20;;;;;;;4.20;1.13;;;5.80;99.90;;;;;;5053310;28;20173;-62
2022/03/04 06:32:47;;;;;;;5.00;1.20;;;5.80;99.90;;;;;;5052058;28;20181;-62
2022/03/04 06:35:12;;;;;;;3.20;1.00;;;5.80;99.90;;;;;;5051587;28;20181;-62
2022/03/04 06:37:38;;;;;;;9.47;1.30;;;5.80;99.90;;;;;;5042317;28;20192;-59
2022/03/04 06:40:06;;;;;;;8.93;1.23;;;5.80;99.90;;;;;;5041819;28;20676;-60
2022/03/04 06:42:32;;;;;;;2.43;1.50;;;5.70;99.90;;;;;;5046224;28;20228;-60
2022/03/04 06:44:58;;;;;;;6.90;1.13;;;5.80;99.90;;;;;;5048958;28;20231;-59
2022/03/04 06:47:24;;;;;;;4.73;1.13;;;6.10;99.90;;;;;;5048050;28;20683;-60
2022/03/04 06:49:50;;;;;;;4.10;2.10;;;;;;;;;;5052858;28;20670;-60
2022/03/04 06:52:16;;;;;;;6.40;1.80;;;5.90;99.90;;;;;;5047308;28;20182;-60
2022/03/04 06:54:41;;;;;;;8.30;1.50;;;5.70;99.90;;;;;;5050550;28;20192;-61
2022/03/04 06:57:07;;;;;;;9.00;1.57;;;5.70;99.90;;;;;;5045437;28;20798;-61
2022/03/04 06:59:33;;;;;;;2.73;1.20;;;5.70;99.90;;;;;;5052675;28;20663;-61
2022/03/04 07:02:00;;;;;;;8.57;1.33;;;5.80;99.90;;;;;;5043104;28;20212;-61
2022/03/04 07:04:25;;;;;;;6.67;1.40;;;5.70;99.90;;;;;;5052483;28;20284;-61
2022/03/04 07:06:51;;;;;;;7.70;3.80;;;5.70;99.90;;;;;;5033941;28;20641;-60
2022/03/04 07:09:17;;;;;;;5.07;1.63;;;5.70;99.90;;;;;;5032609;28;20284;-60
2022/03/04 07:11:43;;;;;;;9.17;1.63;;;5.80;99.90;;;;;;5045054;28;20257;-60
2022/03/04 07:14:09;;;;;;;6.53;1.43;;;5.80;99.90;;;;;;5052415;28;20272;-59
2022/03/04 07:16:35;;;;;;;8.03;1.53;;;;;;;;;;5043786;28;20177;-59
2022/03/04 07:19:02;;;;;;;11.30;1.43;;;5.80;99.90;;;;;;5032200;28;20184;-60
2022/03/04 07:21:28;;;;;;;9.10;1.60;;;5.80;99.90;;;;;;5032691;28;20213;-61
2022/03/04 07:23:54;;;;;;;9.30;1.47;;;5.80;99.90;;;;;;5033283;28;20629;-59
2022/03/04 07:26:20;;;;;;;5.93;1.70;;;;;;;;;;5050935;28;20248;-59
2022/03/04 07:28:46;;;;;;;3.87;1.40;;;5.80;99.90;;;;;;5030650;28;20186;-59
2022/03/04 07:31:12;;;;;;;12.47;1.83;;;5.90;99.90;;;;;;5044213;28;20173;-59
2022/03/04 07:33:38;;;;;;;4.43;1.60;;;6.00;99.90;;;;;;5037571;28;20228;-61
2022/03/04 07:36:06;;;;;;;9.47;1.93;;;5.90;99.90;;;;;;5036872;28;20185;-57
2022/03/04 07:38:32;;;;;;;10.40;1.70;;;6.00;99.90;;;;;;5035493;28;20244;-57
2022/03/04 07:41:00;;;;;;;7.90;1.90;;;6.30;99.90;;;;;;5043343;28;20524;-58
2022/03/04 07:43:26;;;;;;;8.87;1.80;;;6.00;99.90;;;;;;5050747;28;20229;-58
2022/03/04 07:45:52;;;;;;;13.97;1.77;;;6.10;99.90;;;;;;5046831;28;20898;-60
2022/03/04 07:48:18;;;;;;;9.27;1.77;;;6.10;99.90;;;;;;5040154;28;20189;-60
2022/03/04 07:50:44;;;;;;;9.67;1.73;;;6.10;99.90;;;;;;5033951;28;20193;-59
2022/03/04 07:53:10;;;;;;;5.53;1.87;;;;;;;;;;5031145;28;20227;-60
2022/03/04 07:55:36;;;;;;;12.20;1.83;;;;;;;;;;5031463;28;20170;-72
2022/03/04 07:58:01;;;;;;;15.47;2.17;;;6.30;99.90;;;;;;5031262;28;20608;-71
2022/03/04 08:00:27;;;;;;;3.20;1.43;;;6.20;99.90;;;;;;5045162;28;20180;-71
2022/03/04 08:02:53;;;;;;;10.27;1.60;;;6.30;99.90;;;;;;5049951;28;20538;-70
2022/03/04 08:05:20;;;;;;;12.87;2.00;;;6.60;99.90;;;;;;5028730;28;20240;-70
2022/03/04 08:07:46;;;;;;;9.70;2.20;;;6.40;99.90;;;;;;5030030;28;20166;-72
2022/03/04 08:10:12;;;;;;;12.50;1.90;;;6.50;99.90;;;;;;5030538;28;20178;-73
2022/03/04 08:12:39;;;;;;;10.27;1.70;;;6.50;99.90;;;;;;5030040;28;20170;-65
2022/03/04 08:15:07;;;;;;;6.63;1.77;;;6.50;99.90;;;;;;5049561;28;20231;-65
2022/03/04 08:17:33;;;;;;;9.30;1.80;;;6.60;99.90;;;;;;5049696;28;20247;-65
2022/03/04 08:19:59;;;;;;;8.17;1.43;;;6.70;99.90;;;;;;5050404;28;20173;-62
2022/03/04 08:22:24;;;;;;;12.53;2.03;;;6.80;99.90;;;;;;5047506;28;20185;-64
2022/03/04 08:24:50;;;;;;;6.57;1.80;;;6.80;99.90;;;;;;5032932;28;20672;-64
2022/03/04 08:27:16;;;;;;;11.63;1.83;;;6.90;99.90;;;;;;5050384;28;20192;-64
2022/03/04 08:29:42;;;;;;;16.07;1.97;;;6.90;99.90;;;;;;5044208;28;20174;-65
2022/03/04 08:32:08;;;;;;;11.93;2.00;;;7.00;99.90;;;;;;5032573;28;20664;-65
2022/03/04 08:34:34;;;;;;;6.10;1.70;;;7.00;99.90;;;;;;5028169;28;20188;-70
2022/03/04 08:37:00;;;;;;;10.43;1.93;;;7.20;99.90;;;;;;5029583;28;20639;-72
2022/03/04 08:39:26;;;;;;;9.60;1.63;;;7.30;99.90;;;;;;5031110;28;20253;-73
2022/03/04 08:41:52;;;;;;;6.33;1.63;;;7.70;99.90;;;;;;5030970;28;20598;-75
2022/03/04 08:44:18;;;;;;;7.00;1.63;;;7.80;99.90;;;;;;5030582;28;20221;-76
2022/03/04 08:46:43;;;;;;;5.93;1.80;;;7.90;99.90;;;;;;5029970;28;20162;-76
2022/03/04 08:49:09;;;;;;;9.90;2.67;;;8.00;99.90;;;;;;5033320;28;20193;-64
2022/03/04 08:51:36;;;;;;;10.20;2.07;;;8.40;99.90;;;;;;5039358;28;20181;-74
2022/03/04 08:54:02;;;;;;;5.83;1.60;;;9.40;99.90;;;;;;5036565;28;20225;-74
2022/03/04 08:56:28;;;;;;;7.83;1.50;;;;;;;;;;5028995;28;20296;-75
2022/03/04 08:58:54;;;;;;;11.13;1.60;;;11.60;99.90;;;;;;5028588;28;20664;-74
2022/03/04 09:01:20;;;;;;;8.43;1.30;;;12.30;99.90;;;;;;5030440;28;20192;-68
2022/03/04 09:03:46;;;;;;;8.03;1.73;;;12.30;99.90;;;;;;5041627;28;20691;-66
2022/03/04 09:06:12;;;;;;;12.53;2.00;;;;;;;;;;5044655;28;20205;-65
2022/03/04 09:08:39;;;;;;;8.00;1.30;;;;;;;;;;5047850;28;20252;-64
2022/03/04 09:11:04;;;;;;;9.02;1.70;;;13.70;99.90;;;;;;5047820;28;20724;-64
2022/03/04 09:13:32;;;;;;;8.43;1.67;;;13.60;99.90;;;;;;5030075;28;20170;-64
2022/03/04 09:15:59;;;;;;;6.15;1.50;;;13.40;99.90;;;;;;5030097;28;20236;-62
2022/03/04 09:18:25;;;;;;;9.03;1.57;;;12.90;99.90;;;;;;5033887;28;20166;-65
2022/03/04 09:20:50;;;;;;;7.88;1.70;;;11.70;99.90;;;;;;5038252;28;20744;-65
2022/03/04 09:23:16;;;;;;;5.63;1.55;;;13.40;99.90;;;;;;5030005;28;20253;-67
2022/03/04 09:25:42;;;;;;;6.93;1.50;;;13.90;99.90;;;;;;5028709;28;20712;-64
2022/03/04 09:28:07;;;;;;;8.13;1.63;;;16.30;99.90;;;;;;5027956;28;20177;-65
2022/03/04 09:30:36;;;;;;;8.05;2.08;;;15.70;99.90;;;;;;5029775;28;20648;-65
2022/03/04 09:33:02;;;;;;;12.98;2.00;;;16.20;99.90;;;;;;5029353;28;20170;-65
2022/03/04 09:35:28;;;;;;;7.70;1.70;;;17.30;99.90;;;;;;5028948;28;20170;-66
2022/03/04 09:37:54;;;;;;;7.45;1.70;;;16.70;99.90;;;;;;5029275;28;20169;-65
2022/03/04 09:40:19;;;;;;;5.97;1.30;;;16.90;99.90;;;;;;5044630;28;20183;-66
2022/03/04 09:42:45;;;;;;;7.90;1.80;;;17.40;99.90;;;;;;5043536;28;20304;-66
2022/03/04 09:45:11;;;;;;;9.73;1.63;;;17.20;99.90;;;;;;5033074;28;20696;-65
2022/03/04 09:47:37;;;;;;;7.90;1.67;;;16.50;99.90;;;;;;5030072;28;20174;-66
2022/03/04 09:50:05;;;;;;;9.80;1.85;;;16.70;99.90;;;;;;5029765;28;20633;-65
2022/03/04 09:52:31;;;;;;;9.88;1.70;;;16.50;99.90;;;;;;5030196;28;20170;-65
2022/03/04 09:54:57;;;;;;;7.28;1.70;;;17.90;99.90;;;;;;5043156;28;20264;-65
2022/03/04 09:57:23;;;;;;;13.05;1.70;;;18.00;99.90;;;;;;5031068;28;20627;-66
2022/03/04 09:59:49;;;;;;;8.60;1.70;;;18.30;99.90;;;;;;5038977;28;20174;-66
2022/03/04 10:02:15;;;;;;;7.95;1.55;;;16.40;99.90;;;;;;5033802;28;20174;-66
2022/03/04 10:04:41;;;;;;;8.07;1.63;;;17.90;99.90;;;;;;5050463;28;20282;-67
2022/03/04 10:07:13;;;;;;;9.75;1.95;;;19.80;99.90;;;;;;5052099;28;20169;-67
2022/03/04 10:09:49;;;;;;;10.60;1.83;;;20.30;99.90;;;;;;5050685;28;20731;-65
2022/03/04 10:12:17;;;;;;;9.60;1.83;;;21.20;99.90;;;;;;5040660;28;20189;-66
2022/03/04 10:14:59;;;;;;;9.20;1.88;;;18.80;99.90;;;;;;5037492;28;20183;-67
2022/03/04 10:17:26;;;;;;;7.55;1.83;;;20.70;99.90;;;;;;5043884;28;20255;-66
2022/03/04 10:19:57;;;;;;;10.50;1.88;;;18.60;99.90;;;;;;5033181;28;20192;-65
2022/03/04 10:22:23;;;;;;;9.70;1.85;;;18.60;99.90;;;;;;5037447;28;20232;-65
2022/03/04 10:24:49;;;;;;;10.48;1.92;;;19.00;99.90;;;;;;5035454;28;20204;-67
2022/03/04 10:27:17;;;;;;;11.68;2.13;;;18.60;99.90;;;;;;5052428;28;20601;-65
2022/03/04 10:29:48;;;;;;;11.43;1.92;;;18.40;99.90;;;;;;5050326;28;20187;-64
2022/03/04 10:32:24;;;;;;;8.75;1.80;;;20.60;99.90;;;;;;5040059;28;20174;-66
2022/03/04 10:34:57;;;;;;;6.88;1.75;;;21.40;99.90;;;;;;5032808;28;20216;-67
2022/03/04 10:37:22;;;;;;;11.38;3.03;;;22.40;99.90;;;;;;5032802;28;20188;-67
2022/03/04 10:39:57;;;;;;;9.23;1.75;;;22.80;99.90;;;;;;5034692;28;20166;-65
2022/03/04 10:42:52;;;;;;;9.45;1.65;;;21.70;99.90;;;;;;5052816;28;20266;-65
2022/03/04 10:45:42;;;;;;;7.93;1.77;;;20.90;99.90;;;;;;5056810;28;20203;-67
2022/03/04 10:48:09;;;;;;;6.95;1.90;;;21.20;99.90;;;;;;5068075;28;20222;-67
2022/03/04 10:50:41;;;;;;;10.32;2.30;;;21.50;99.90;;;;;;5056888;28;20199;-66
2022/03/04 10:53:07;;;;;;;11.35;2.22;;;22.10;99.90;;;;;;5052603;28;20165;-67
2022/03/04 10:55:45;;;;;;;9.07;2.20;;;22.40;99.90;;;;;;5052081;28;20204;-67
2022/03/04 10:58:19;;;;;;;5.60;1.80;;;23.40;99.90;;;;;;5043555;28;20207;-66
2022/03/04 11:01:09;;;;;;;8.95;2.17;;;23.80;99.90;;;;;;5032614;28;20503;-67
2022/03/04 11:03:37;;;;;;;8.90;1.75;;;23.30;99.90;;;;;;5047206;28;20239;-67
2022/03/04 11:06:07;;;;;;;10.55;2.20;;;23.70;99.90;;;;;;5043555;28;20178;-67
2022/03/04 11:08:33;;;;;;;8.82;2.15;;;23.80;99.90;;;;;;5051869;28;20582;-67
2022/03/04 11:11:00;;;;;;;7.32;1.73;;;23.80;99.90;;;;;;5039029;28;20166;-67
2022/03/04 11:13:26;;;;;;;12.80;1.70;;;23.90;99.90;;;;;;5032630;28;20228;-67
2022/03/04 11:15:53;;;;;;;8.15;1.88;;;24.20;99.90;;;;;;5032468;28;20174;-67
2022/03/04 11:18:21;;;;;;;8.02;1.90;;;24.50;99.90;;;;;;5031966;28;20173;-67
2022/03/04 11:20:51;;;;;;;8.35;2.10;;;25.30;99.90;;;;;;5031867;28;20231;-67
2022/03/04 11:23:25;;;;;;;8.88;2.10;;;25.00;99.90;;;;;;5043293;28;20173;-67
2022/03/04 11:26:02;;;;;;;10.52;2.08;;;24.60;99.90;;;;;;5037500;28;20273;-67
2022/03/04 11:28:35;;;;;;;9.77;3.17;;;23.70;99.90;;;;;;5036585;28;20616;-67
2022/03/04 11:31:06;;;;;;;7.63;1.90;;;21.70;99.90;;;;;;5050728;28;20239;-67
2022/03/04 11:33:37;;;;;;;7.22;2.03;;;21.80;99.90;;;;;;5051968;28;20238;-67
2022/03/04 11:36:08;;;;;;;9.38;2.30;;;21.20;99.90;;;;;;5051118;28;20201;-67
2022/03/04 11:38:49;;;;;;;8.77;1.92;;;19.10;99.90;;;;;;5052226;28;20180;-67
2022/03/04 11:41:26;;;;;;;7.82;1.83;;;20.50;99.90;;;;;;5050482;28;20170;-67
2022/03/04 11:43:57;;;;;;;7.25;2.05;;;21.00;99.90;;;;;;5049056;28;20221;-66
2022/03/04 11:46:30;;;;;;;8.68;2.08;;;20.40;99.90;;;;;;5040393;28;20181;-66
2022/03/04 11:49:23;;;;;;;8.68;2.05;;;18.60;99.90;;;;;;5051776;28;20168;-66
2022/03/04 11:52:07;;;;;;;6.80;1.90;;;19.30;99.90;;;;;;5032112;28;20265;-67
2022/03/04 11:54:34;;;;;;;8.40;1.50;;;17.90;99.90;;;;;;5036922;28;20715;-66
2022/03/04 11:57:24;;;;;;;8.23;1.70;;;15.80;99.90;;;;;;5051598;28;20272;-67
2022/03/04 12:00:23;;;;;;;6.82;1.73;;;19.40;99.90;;;;;;5039525;28;20269;-67
2022/03/04 12:02:54;;;;;;;9.32;2.00;;;21.70;99.90;;;;;;5030213;28;20655;-67
2022/03/04 12:05:25;;;;;;;7.40;2.20;;;23.00;99.90;;;;;;5045091;28;20679;-67
2022/03/04 12:07:56;;;;;;;4.60;1.70;;;24.20;99.90;;;;;;5060405;28;20194;-68
2022/03/04 12:10:24;;;;;;;13.45;2.20;;;23.00;99.90;;;;;;5070522;28;20204;-68
2022/03/04 12:12:59;;;;;;;5.47;1.95;;;20.70;99.90;;;;;;5070445;28;20180;-68
2022/03/04 12:15:26;;;;;;;8.75;2.00;;;19.00;99.90;;;;;;5041619;28;20193;-67
2022/03/04 12:18:20;;;;;;;8.27;1.70;;;17.80;99.90;;;;;;5050141;28;20177;-67
2022/03/04 12:20:56;;;;;;;8.27;1.83;;;16.20;99.90;;;;;;5045368;28;20220;-67
2022/03/04 12:23:29;;;;;;;9.68;2.03;;;14.90;99.90;;;;;;5050337;28;20647;-67
2022/03/04 12:25:55;;;;;;;8.70;2.17;;;13.90;99.90;;;;;;5047847;28;20184;-67
2022/03/04 12:28:35;;;;;;;7.07;1.95;;;13.90;99.90;;;;;;5033505;28;20166;-67
2022/03/04 12:31:01;;;;;;;8.45;1.52;;;13.70;99.90;;;;;;5045424;28;20177;-67
2022/03/04 12:33:35;;;;;;;5.97;1.35;;;14.50;99.90;;;;;;5044929;28;20192;-67
2022/03/04 12:36:08;;;;;;;8.32;1.75;;;14.60;99.90;;;;;;5030575;28;20193;-67
2022/03/04 12:38:46;;;;;;;8.93;2.03;;;16.20;99.90;;;;;;5030704;28;20536;-67
2022/03/04 12:41:16;;;;;;;6.95;1.83;;;18.70;99.90;;;;;;5028148;28;20177;-68
2022/03/04 12:44:06;;;;;;;10.13;2.15;;;20.20;99.90;;;;;;5029015;28;20217;-66
2022/03/04 12:46:35;;;;;;;9.60;2.03;;;20.40;99.90;;;;;;5028749;28;20200;-66
2022/03/04 12:49:03;;;;;;;5.00;1.80;;;21.80;99.90;;;;;;5029495;28;20170;-66
2022/03/04 12:51:32;;;;;;;8.57;1.90;;;23.20;99.90;;;;;;5030465;28;20170;-67
2022/03/04 12:54:03;;;;;;;8.75;2.38;;;21.90;99.90;;;;;;5030149;28;20594;-67
2022/03/04 12:56:30;;;;;;;10.00;2.17;;;21.50;99.90;;;;;;5029109;28;20174;-66
2022/03/04 12:58:58;;;;;;;8.98;2.33;;;21.30;99.90;;;;;;5030749;28;20170;-66
2022/03/04 13:01:25;;;;;;;9.32;2.20;;;21.00;99.90;;;;;;5030399;28;20201;-66